sensor_id;sensor_type;location;lat;lon;timestamp;pressure;altitude;pressure_sealevel;temperature;humidity
6349;BME280;3207;42.648;23.406;2023-02-15T00:00:11;101794.09;;;5.06;nan
6349;BME280;3207;42.648;23.406;2023-02-15T00:02:38;101793.34;;;5.00;nan
6349;BME280;3207;42.648;23.406;2023-02-15T00:05:06;101810.63;;;4.99;nan
6349;BME280;3207;42.648;23.406;2023-02-15T00:07:34;101795.28;;;4.90;nan
6349;BME280;3207;42.648;23.406;2023-02-15T00:10:02;101806.44;;;4.95;nan
6349;BME280;3207;42.648;23.406;2023-02-15T00:12:29;101799.50;;;4.96;nan
6349;BME280;3207;42.648;23.406;2023-02-15T00:14:56;101807.34;;;4.93;nan
6349;BME280;3207;42.648;23.406;2023-02-15T00:17:22;101807.41;;;4.88;nan
6349;BME280;3207;42.648;23.406;2023-02-15T00:19:49;101808.31;;;4.87;nan
6349;BME280;3207;42.648;23.406;2023-02-15T00:22:16;101792.84;;;4.84;nan
6349;BME280;3207;42.648;23.406;2023-02-15T00:24:44;101806.63;;;4.86;nan
6349;BME280;3207;42.648;23.406;2023-02-15T00:27:11;101798.84;;;4.86;nan
6349;BME280;3207;42.648;23.406;2023-02-15T00:29:38;101804.81;;;4.88;nan
6349;BME280;3207;42.648;23.406;2023-02-15T00:32:05;101797.91;;;4.89;nan
6349;BME280;3207;42.648;23.406;2023-02-15T00:34:32;101800.66;;;4.81;nan
6349;BME280;3207;42.648;23.406;2023-02-15T00:36:59;101800.66;;;4.81;nan
6349;BME280;3207;42.648;23.406;2023-02-15T00:39:26;101805.84;;;4.81;nan
6349;BME280;3207;42.648;23.406;2023-02-15T00:41:55;101800.78;;;4.75;nan
6349;BME280;3207;42.648;23.406;2023-02-15T00:44:22;101802.53;;;4.74;nan
6349;BME280;3207;42.648;23.406;2023-02-15T00:46:49;101797.44;;;4.70;nan
6349;BME280;3207;42.648;23.406;2023-02-15T00:49:16;101801.72;;;4.71;nan
6349;BME280;3207;42.648;23.406;2023-02-15T00:51:42;101798.31;;;4.67;nan
6349;BME280;3207;42.648;23.406;2023-02-15T00:54:09;101795.91;;;4.60;nan
6349;BME280;3207;42.648;23.406;2023-02-15T00:56:36;101795.91;;;4.58;nan
6349;BME280;3207;42.648;23.406;2023-02-15T00:59:04;101789.03;;;4.57;nan
6349;BME280;3207;42.648;23.406;2023-02-15T01:01:31;101801.13;;;4.57;nan
6349;BME280;3207;42.648;23.406;2023-02-15T01:03:58;101788.16;;;4.58;nan
6349;BME280;3207;42.648;23.406;2023-02-15T01:06:25;101783.09;;;4.52;nan
6349;BME280;3207;42.648;23.406;2023-02-15T01:08:51;101784.84;;;4.52;nan
6349;BME280;3207;42.648;23.406;2023-02-15T01:11:20;101784.88;;;4.49;nan
6349;BME280;3207;42.648;23.406;2023-02-15T01:13:48;101782.34;;;4.46;nan
6349;BME280;3207;42.648;23.406;2023-02-15T01:16:17;101782.50;;;4.38;nan
6349;BME280;3207;42.648;23.406;2023-02-15T01:18:44;101780.81;;;4.35;nan
6349;BME280;3207;42.648;23.406;2023-02-15T01:21:12;101781.78;;;4.30;nan
6349;BME280;3207;42.648;23.406;2023-02-15T01:23:39;101777.47;;;4.30;nan
6349;BME280;3207;42.648;23.406;2023-02-15T01:26:07;101772.34;;;4.27;nan
6349;BME280;3207;42.648;23.406;2023-02-15T01:28:34;101769.81;;;4.24;nan
6349;BME280;3207;42.648;23.406;2023-02-15T01:31:04;101770.75;;;4.20;nan
6349;BME280;3207;42.648;23.406;2023-02-15T01:33:33;101765.63;;;4.17;nan
6349;BME280;3207;42.648;23.406;2023-02-15T01:36:00;101758.75;;;4.16;nan
6349;BME280;3207;42.648;23.406;2023-02-15T01:38:27;101765.69;;;4.14;nan
6349;BME280;3207;42.648;23.406;2023-02-15T01:40:54;101761.44;;;4.12;nan
6349;BME280;3207;42.648;23.406;2023-02-15T01:43:43;101752.91;;;4.05;nan
6349;BME280;3207;42.648;23.406;2023-02-15T01:46:12;101757.19;;;4.06;nan
6349;BME280;3207;42.648;23.406;2023-02-15T01:48:44;101755.59;;;4.00;nan
6349;BME280;3207;42.648;23.406;2023-02-15T01:51:12;101753.91;;;3.96;nan
6349;BME280;3207;42.648;23.406;2023-02-15T01:53:42;101751.38;;;3.93;nan
6349;BME280;3207;42.648;23.406;2023-02-15T01:56:13;101748.06;;;3.87;nan
6349;BME280;3207;42.648;23.406;2023-02-15T01:58:42;101745.50;;;3.84;nan
6349;BME280;3207;42.648;23.406;2023-02-15T02:01:10;101753.28;;;3.82;nan
6349;BME280;3207;42.648;23.406;2023-02-15T02:03:46;101749.06;;;3.80;nan
6349;BME280;3207;42.648;23.406;2023-02-15T02:06:16;101738.69;;;3.81;nan
6349;BME280;3207;42.648;23.406;2023-02-15T02:08:44;101743.03;;;3.79;nan
6349;BME280;3207;42.648;23.406;2023-02-15T02:11:12;101738.69;;;3.81;nan
6349;BME280;3207;42.648;23.406;2023-02-15T02:13:40;101740.47;;;3.78;nan
6349;BME280;3207;42.648;23.406;2023-02-15T02:16:11;101737.00;;;3.79;nan
6349;BME280;3207;42.648;23.406;2023-02-15T02:18:51;101733.56;;;3.77;nan
6349;BME280;3207;42.648;23.406;2023-02-15T02:21:35;101733.56;;;3.77;nan
6349;BME280;3207;42.648;23.406;2023-02-15T02:24:34;101725.81;;;3.77;nan
6349;BME280;3207;42.648;23.406;2023-02-15T02:27:19;101725.81;;;3.77;nan
6349;BME280;3207;42.648;23.406;2023-02-15T02:36:07;101713.88;;;3.70;nan
6349;BME280;3207;42.648;23.406;2023-02-15T02:38:51;101714.75;;;3.68;nan
6349;BME280;3207;42.648;23.406;2023-02-15T02:41:25;101719.06;;;3.70;nan
6349;BME280;3207;42.648;23.406;2023-02-15T02:44:00;101713.06;;;3.67;nan
6349;BME280;3207;42.648;23.406;2023-02-15T02:46:34;101701.06;;;3.60;nan
6349;BME280;3207;42.648;23.406;2023-02-15T02:49:03;101711.34;;;3.65;nan
6349;BME280;3207;42.648;23.406;2023-02-15T02:51:31;101713.97;;;3.63;nan
6349;BME280;3207;42.648;23.406;2023-02-15T02:54:01;101718.25;;;3.64;nan
6349;BME280;3207;42.648;23.406;2023-02-15T02:56:36;101713.19;;;3.60;nan
6349;BME280;3207;42.648;23.406;2023-02-15T02:59:08;101709.75;;;3.59;nan
6349;BME280;3207;42.648;23.406;2023-02-15T03:01:41;101715.81;;;3.57;nan
6349;BME280;3207;42.648;23.406;2023-02-15T03:04:12;101717.53;;;3.56;nan
6349;BME280;3207;42.648;23.406;2023-02-15T03:06:46;101712.38;;;3.56;nan
6349;BME280;3207;42.648;23.406;2023-02-15T03:09:18;101708.94;;;3.54;nan
6349;BME280;3207;42.648;23.406;2023-02-15T03:11:48;101705.50;;;3.55;nan
6349;BME280;3207;42.648;23.406;2023-02-15T03:14:17;101708.94;;;3.54;nan
6349;BME280;3207;42.648;23.406;2023-02-15T03:16:47;101706.38;;;3.53;nan
6349;BME280;3207;42.648;23.406;2023-02-15T03:19:17;101714.97;;;3.56;nan
6349;BME280;3207;42.648;23.406;2023-02-15T03:21:48;101714.97;;;3.56;nan
6349;BME280;3207;42.648;23.406;2023-02-15T03:24:25;101720.13;;;3.56;nan
6349;BME280;3207;42.648;23.406;2023-02-15T03:26:55;101720.13;;;3.56;nan
6349;BME280;3207;42.648;23.406;2023-02-15T03:29:25;101728.72;;;3.58;nan
6349;BME280;3207;42.648;23.406;2023-02-15T03:31:57;101723.53;;;3.58;nan
6349;BME280;3207;42.648;23.406;2023-02-15T03:34:26;101697.06;;;3.44;nan
6349;BME280;3207;42.648;23.406;2023-02-15T03:36:59;101720.09;;;3.59;nan
6349;BME280;3207;42.648;23.406;2023-02-15T03:39:30;101716.59;;;3.60;nan
6349;BME280;3207;42.648;23.406;2023-02-15T03:42:04;101714.91;;;3.59;nan
6349;BME280;3207;42.648;23.406;2023-02-15T03:44:39;101707.19;;;3.56;nan
6349;BME280;3207;42.648;23.406;2023-02-15T03:47:13;101714.91;;;3.59;nan
6349;BME280;3207;42.648;23.406;2023-02-15T03:49:43;101714.06;;;3.59;nan
6349;BME280;3207;42.648;23.406;2023-02-15T03:52:15;101719.28;;;3.56;nan
6349;BME280;3207;42.648;23.406;2023-02-15T03:54:44;101716.72;;;3.53;nan
6349;BME280;3207;42.648;23.406;2023-02-15T03:57:15;101711.66;;;3.48;nan
6349;BME280;3207;42.648;23.406;2023-02-15T04:00:02;101713.41;;;3.46;nan
6349;BME280;3207;42.648;23.406;2023-02-15T04:03:07;101705.66;;;3.45;nan
6349;BME280;3207;42.648;23.406;2023-02-15T04:05:35;101695.34;;;3.43;nan
6349;BME280;3207;42.648;23.406;2023-02-15T04:08:04;101702.34;;;3.38;nan
6349;BME280;3207;42.648;23.406;2023-02-15T04:10:31;101692.88;;;3.36;nan
6349;BME280;3207;42.648;23.406;2023-02-15T04:13:15;101692.06;;;3.32;nan
6349;BME280;3207;42.648;23.406;2023-02-15T04:15:42;101687.81;;;3.29;nan
6349;BME280;3207;42.648;23.406;2023-02-15T04:18:26;101687.94;;;3.22;nan
6349;BME280;3207;42.648;23.406;2023-02-15T04:21:10;101690.63;;;3.14;nan
6349;BME280;3207;42.648;23.406;2023-02-15T04:23:56;101685.53;;;3.08;nan
6349;BME280;3207;42.648;23.406;2023-02-15T04:26:40;101683.09;;;3.01;nan
6349;BME280;3207;42.648;23.406;2023-02-15T04:29:07;101690.00;;;2.99;nan
6349;BME280;3207;42.648;23.406;2023-02-15T04:31:33;101698.72;;;2.91;nan
6349;BME280;3207;42.648;23.406;2023-02-15T04:34:00;101686.75;;;2.86;nan
6349;BME280;3207;42.648;23.406;2023-02-15T04:36:27;101697.91;;;2.86;nan
6349;BME280;3207;42.648;23.406;2023-02-15T04:38:55;101691.94;;;2.84;nan
6349;BME280;3207;42.648;23.406;2023-02-15T04:41:22;101695.38;;;2.83;nan
6349;BME280;3207;42.648;23.406;2023-02-15T04:43:49;101696.28;;;2.79;nan
6349;BME280;3207;42.648;23.406;2023-02-15T04:46:16;101694.59;;;2.77;nan
6349;BME280;3207;42.648;23.406;2023-02-15T04:48:42;101693.84;;;2.70;nan
6349;BME280;3207;42.648;23.406;2023-02-15T04:51:09;101688.81;;;2.61;nan
6349;BME280;3207;42.648;23.406;2023-02-15T04:53:36;101690.41;;;2.68;nan
6349;BME280;3207;42.648;23.406;2023-02-15T04:56:04;101691.22;;;2.75;nan
6349;BME280;3207;42.648;23.406;2023-02-15T04:58:31;101688.66;;;2.73;nan
6349;BME280;3207;42.648;23.406;2023-02-15T05:00:58;101689.47;;;2.75;nan
6349;BME280;3207;42.648;23.406;2023-02-15T05:03:25;101676.59;;;2.72;nan
6349;BME280;3207;42.648;23.406;2023-02-15T05:05:52;101685.97;;;2.79;nan
6349;BME280;3207;42.648;23.406;2023-02-15T05:08:19;101689.38;;;2.81;nan
6349;BME280;3207;42.648;23.406;2023-02-15T05:10:47;101685.13;;;2.77;nan
6349;BME280;3207;42.648;23.406;2023-02-15T05:13:16;101686.84;;;2.78;nan
6349;BME280;3207;42.648;23.406;2023-02-15T05:15:47;101692.00;;;2.78;nan
6349;BME280;3207;42.648;23.406;2023-02-15T05:18:13;101694.66;;;2.75;nan
6349;BME280;3207;42.648;23.406;2023-02-15T05:20:41;101689.53;;;2.69;nan
6349;BME280;3207;42.648;23.406;2023-02-15T05:23:07;101692.22;;;2.65;nan
6349;BME280;3207;42.648;23.406;2023-02-15T05:25:34;101694.03;;;2.55;nan
6349;BME280;3207;42.648;23.406;2023-02-15T05:28:20;101702.56;;;2.60;nan
6349;BME280;3207;42.648;23.406;2023-02-15T05:30:47;101701.72;;;2.61;nan
6349;BME280;3207;42.648;23.406;2023-02-15T05:33:14;101702.66;;;2.54;nan
6349;BME280;3207;42.648;23.406;2023-02-15T05:35:41;101710.34;;;2.57;nan
6349;BME280;3207;42.648;23.406;2023-02-15T05:38:08;101706.91;;;2.58;nan
6349;BME280;3207;42.648;23.406;2023-02-15T05:40:35;101709.47;;;2.58;nan
6349;BME280;3207;42.648;23.406;2023-02-15T05:43:01;101716.34;;;2.59;nan
6349;BME280;3207;42.648;23.406;2023-02-15T05:45:30;101706.03;;;2.57;nan
6349;BME280;3207;42.648;23.406;2023-02-15T05:47:56;101714.63;;;2.60;nan
6349;BME280;3207;42.648;23.406;2023-02-15T05:50:24;101719.78;;;2.61;nan
6349;BME280;3207;42.648;23.406;2023-02-15T05:52:51;101718.91;;;2.61;nan
6349;BME280;3207;42.648;23.406;2023-02-15T05:55:18;101719.78;;;2.60;nan
6349;BME280;3207;42.648;23.406;2023-02-15T05:57:45;101723.19;;;2.63;nan
6349;BME280;3207;42.648;23.406;2023-02-15T06:00:13;101720.66;;;2.58;nan
6349;BME280;3207;42.648;23.406;2023-02-15T06:02:42;101726.66;;;2.62;nan
6349;BME280;3207;42.648;23.406;2023-02-15T06:05:08;101737.88;;;2.60;nan
6349;BME280;3207;42.648;23.406;2023-02-15T06:07:35;101730.09;;;2.61;nan
6349;BME280;3207;42.648;23.406;2023-02-15T06:10:03;101740.44;;;2.61;nan
6349;BME280;3207;42.648;23.406;2023-02-15T06:12:30;101731.84;;;2.59;nan
6349;BME280;3207;42.648;23.406;2023-02-15T06:14:57;101724.00;;;2.65;nan
6349;BME280;3207;42.648;23.406;2023-02-15T06:17:24;101725.69;;;2.69;nan
6349;BME280;3207;42.648;23.406;2023-02-15T06:19:52;101725.63;;;2.75;nan
6349;BME280;3207;42.648;23.406;2023-02-15T06:22:19;101734.13;;;2.82;nan
6349;BME280;3207;42.648;23.406;2023-02-15T06:24:45;101726.25;;;2.92;nan
6349;BME280;3207;42.648;23.406;2023-02-15T06:27:12;101738.00;;;3.15;nan
6349;BME280;3207;42.648;23.406;2023-02-15T06:29:39;101736.72;;;3.42;nan
6349;BME280;3207;42.648;23.406;2023-02-15T06:32:06;101741.44;;;3.71;nan
6349;BME280;3207;42.648;23.406;2023-02-15T06:34:33;101735.59;;;4.09;nan
6349;BME280;3207;42.648;23.406;2023-02-15T06:37:07;101720.22;;;4.46;nan
6349;BME280;3207;42.648;23.406;2023-02-15T06:39:35;101729.38;;;5.03;nan
6349;BME280;3207;42.648;23.406;2023-02-15T06:42:02;101706.63;;;5.51;nan
6349;BME280;3207;42.648;23.406;2023-02-15T06:44:29;101745.28;;;6.61;nan
6349;BME280;3207;42.648;23.406;2023-02-15T06:46:56;101740.16;;;7.45;nan
6349;BME280;3207;42.648;23.406;2023-02-15T06:49:23;101735.50;;;8.32;nan
6349;BME280;3207;42.648;23.406;2023-02-15T06:51:50;101741.19;;;9.33;nan
6349;BME280;3207;42.648;23.406;2023-02-15T06:54:18;101742.38;;;10.31;nan
6349;BME280;3207;42.648;23.406;2023-02-15T06:56:45;101741.88;;;11.18;nan
6349;BME280;3207;42.648;23.406;2023-02-15T06:59:12;101734.16;;;12.04;nan
6349;BME280;3207;42.648;23.406;2023-02-15T07:01:38;101749.59;;;13.07;nan
6349;BME280;3207;42.648;23.406;2023-02-15T07:04:05;101741.03;;;13.97;nan
6349;BME280;3207;42.648;23.406;2023-02-15T07:06:32;101746.31;;;14.96;nan
6349;BME280;3207;42.648;23.406;2023-02-15T07:08:59;101747.97;;;15.92;nan
6349;BME280;3207;42.648;23.406;2023-02-15T07:11:29;101723.56;;;16.90;nan
6349;BME280;3207;42.648;23.406;2023-02-15T07:14:13;101735.38;;;17.92;nan
6349;BME280;3207;42.648;23.406;2023-02-15T07:16:39;101731.16;;;18.80;nan
6349;BME280;3207;42.648;23.406;2023-02-15T07:19:06;101732.22;;;19.75;nan
6349;BME280;3207;42.648;23.406;2023-02-15T07:21:33;101744.31;;;20.51;nan
6349;BME280;3207;42.648;23.406;2023-02-15T07:24:00;101734.41;;;21.12;nan
6349;BME280;3207;42.648;23.406;2023-02-15T07:26:30;101727.19;;;21.72;nan
6349;BME280;3207;42.648;23.406;2023-02-15T07:28:57;101736.38;;;22.26;nan
6349;BME280;3207;42.648;23.406;2023-02-15T07:31:24;101736.53;;;22.98;nan
6349;BME280;3207;42.648;23.406;2023-02-15T07:33:51;101737.72;;;23.67;nan
6349;BME280;3207;42.648;23.406;2023-02-15T07:36:18;101731.91;;;24.41;nan
6349;BME280;3207;42.648;23.406;2023-02-15T07:38:44;101744.28;;;25.18;nan
6349;BME280;3207;42.648;23.406;2023-02-15T07:41:13;101744.34;;;25.83;nan
6349;BME280;3207;42.648;23.406;2023-02-15T07:43:43;101744.75;;;26.51;nan
6349;BME280;3207;42.648;23.406;2023-02-15T07:46:12;101747.72;;;27.04;nan
6349;BME280;3207;42.648;23.406;2023-02-15T07:48:39;101741.72;;;27.47;nan
6349;BME280;3207;42.648;23.406;2023-02-15T07:51:10;101744.66;;;27.98;nan
6349;BME280;3207;42.648;23.406;2023-02-15T07:53:38;101752.84;;;28.27;nan
6349;BME280;3207;42.648;23.406;2023-02-15T07:56:09;101754.47;;;28.72;nan
6349;BME280;3207;42.648;23.406;2023-02-15T07:58:36;101753.53;;;29.31;nan
6349;BME280;3207;42.648;23.406;2023-02-15T08:01:21;101751.50;;;29.75;nan
6349;BME280;3207;42.648;23.406;2023-02-15T08:03:48;101758.78;;;30.03;nan
6349;BME280;3207;42.648;23.406;2023-02-15T08:06:15;101745.88;;;30.26;nan
6349;BME280;3207;42.648;23.406;2023-02-15T08:08:42;101754.03;;;30.74;nan
6349;BME280;3207;42.648;23.406;2023-02-15T08:11:15;101736.56;;;31.31;nan
6349;BME280;3207;42.648;23.406;2023-02-15T08:13:52;101743.31;;;31.87;nan
6349;BME280;3207;42.648;23.406;2023-02-15T08:16:26;101748.63;;;32.47;nan
6349;BME280;3207;42.648;23.406;2023-02-15T08:18:53;101758.94;;;32.76;nan
6349;BME280;3207;42.648;23.406;2023-02-15T08:21:21;101750.13;;;32.94;nan
6349;BME280;3207;42.648;23.406;2023-02-15T08:23:48;101744.97;;;33.24;nan
6349;BME280;3207;42.648;23.406;2023-02-15T08:26:15;101747.88;;;33.54;nan
6349;BME280;3207;42.648;23.406;2023-02-15T08:28:42;101744.91;;;33.62;nan
6349;BME280;3207;42.648;23.406;2023-02-15T08:31:10;101742.78;;;33.64;nan
6349;BME280;3207;42.648;23.406;2023-02-15T08:33:42;101743.03;;;33.87;nan
6349;BME280;3207;42.648;23.406;2023-02-15T08:36:10;101745.25;;;33.97;nan
6349;BME280;3207;42.648;23.406;2023-02-15T08:41:59;101752.00;;;34.67;nan
6349;BME280;3207;42.648;23.406;2023-02-15T08:44:26;101761.38;;;34.90;nan
6349;BME280;3207;42.648;23.406;2023-02-15T08:46:53;101758.88;;;35.18;nan
6349;BME280;3207;42.648;23.406;2023-02-15T08:49:24;101752.34;;;35.37;nan
6349;BME280;3207;42.648;23.406;2023-02-15T08:51:50;101744.09;;;35.55;nan
6349;BME280;3207;42.648;23.406;2023-02-15T08:54:19;101756.91;;;35.67;nan
6349;BME280;3207;42.648;23.406;2023-02-15T08:56:46;101754.78;;;35.92;nan
6349;BME280;3207;42.648;23.406;2023-02-15T08:59:15;101750.56;;;36.31;nan
6349;BME280;3207;42.648;23.406;2023-02-15T09:01:42;101749.38;;;36.67;nan
6349;BME280;3207;42.648;23.406;2023-02-15T09:04:09;101745.88;;;36.95;nan
6349;BME280;3207;42.648;23.406;2023-02-15T09:06:40;101744.38;;;37.16;nan
6349;BME280;3207;42.648;23.406;2023-02-15T09:09:07;101749.84;;;37.32;nan
6349;BME280;3207;42.648;23.406;2023-02-15T09:11:36;101747.28;;;37.43;nan
6349;BME280;3207;42.648;23.406;2023-02-15T09:14:04;101745.16;;;37.61;nan
6349;BME280;3207;42.648;23.406;2023-02-15T09:16:33;101702.22;;;37.57;nan
6349;BME280;3207;42.648;23.406;2023-02-15T09:19:01;101748.25;;;37.82;nan
6349;BME280;3207;42.648;23.406;2023-02-15T09:21:31;101750.75;;;38.05;nan
6349;BME280;3207;42.648;23.406;2023-02-15T09:24:01;101744.50;;;38.26;nan
6349;BME280;3207;42.648;23.406;2023-02-15T09:26:29;101749.94;;;38.43;nan
6349;BME280;3207;42.648;23.406;2023-02-15T09:28:58;101746.56;;;38.58;nan
6349;BME280;3207;42.648;23.406;2023-02-15T09:31:27;101737.94;;;38.93;nan
6349;BME280;3207;42.648;23.406;2023-02-15T09:33:55;101753.41;;;39.31;nan
6349;BME280;3207;42.648;23.406;2023-02-15T09:36:24;101749.25;;;39.55;nan
6349;BME280;3207;42.648;23.406;2023-02-15T09:38:54;101751.16;;;39.55;nan
6349;BME280;3207;42.648;23.406;2023-02-15T09:41:40;101753.25;;;39.79;nan
6349;BME280;3207;42.648;23.406;2023-02-15T09:44:17;101741.38;;;40.01;nan
6349;BME280;3207;42.648;23.406;2023-02-15T09:47:01;101684.44;;;39.71;nan
6349;BME280;3207;42.648;23.406;2023-02-15T09:49:38;101745.00;;;40.16;nan
6349;BME280;3207;42.648;23.406;2023-02-15T09:52:31;101733.19;;;40.68;nan
6349;BME280;3207;42.648;23.406;2023-02-15T09:55:14;101741.81;;;41.17;nan
6349;BME280;3207;42.648;23.406;2023-02-15T09:57:50;101736.63;;;41.61;nan
6349;BME280;3207;42.648;23.406;2023-02-15T10:00:27;101691.50;;;41.78;nan
6349;BME280;3207;42.648;23.406;2023-02-15T10:03:29;101694.50;;;41.96;nan
6349;BME280;3207;42.648;23.406;2023-02-15T10:06:10;101737.47;;;42.52;nan
6349;BME280;3207;42.648;23.406;2023-02-15T10:11:51;101723.25;;;42.89;nan
6349;BME280;3207;42.648;23.406;2023-02-15T10:14:55;101719.63;;;43.32;nan
6349;BME280;3207;42.648;23.406;2023-02-15T10:17:34;101714.28;;;43.75;nan
6349;BME280;3207;42.648;23.406;2023-02-15T10:20:17;101653.13;;;43.44;nan
6349;BME280;3207;42.648;23.406;2023-02-15T10:23:02;101715.25;;;44.32;nan
6349;BME280;3207;42.648;23.406;2023-02-15T10:25:43;101706.97;;;44.32;nan
6349;BME280;3207;42.648;23.406;2023-02-15T10:28:16;101702.56;;;44.31;nan
6349;BME280;3207;42.648;23.406;2023-02-15T10:30:47;101700.88;;;44.35;nan
6349;BME280;3207;42.648;23.406;2023-02-15T10:33:36;101688.44;;;44.37;nan
6349;BME280;3207;42.648;23.406;2023-02-15T10:36:15;101699.31;;;44.29;nan
6349;BME280;3207;42.648;23.406;2023-02-15T10:38:50;101690.75;;;44.49;nan
6349;BME280;3207;42.648;23.406;2023-02-15T10:41:31;101687.34;;;44.33;nan
6349;BME280;3207;42.648;23.406;2023-02-15T10:44:18;101685.81;;;44.46;nan
6349;BME280;3207;42.648;23.406;2023-02-15T10:47:04;101685.00;;;44.64;nan
6349;BME280;3207;42.648;23.406;2023-02-15T10:49:45;101679.13;;;45.22;nan
6349;BME280;3207;42.648;23.406;2023-02-15T10:52:25;101681.25;;;45.57;nan
6349;BME280;3207;42.648;23.406;2023-02-15T10:55:04;101669.09;;;44.94;nan
6349;BME280;3207;42.648;23.406;2023-02-15T10:57:41;101672.72;;;44.75;nan
6349;BME280;3207;42.648;23.406;2023-02-15T11:00:14;101675.94;;;44.96;nan
6349;BME280;3207;42.648;23.406;2023-02-15T11:03:05;101660.66;;;43.86;nan
6349;BME280;3207;42.648;23.406;2023-02-15T11:05:45;101657.81;;;43.91;nan
6349;BME280;3207;42.648;23.406;2023-02-15T11:08:16;101659.53;;;42.61;nan
6349;BME280;3207;42.648;23.406;2023-02-15T11:10:47;101647.50;;;41.88;nan
6349;BME280;3207;42.648;23.406;2023-02-15T11:13:18;101645.50;;;42.09;nan
6349;BME280;3207;42.648;23.406;2023-02-15T11:15:51;101641.25;;;41.67;nan
6349;BME280;3207;42.648;23.406;2023-02-15T11:18:25;101633.06;;;41.42;nan
6349;BME280;3207;42.648;23.406;2023-02-15T11:20:57;101635.69;;;41.87;nan
6349;BME280;3207;42.648;23.406;2023-02-15T11:23:26;101625.31;;;41.64;nan
6349;BME280;3207;42.648;23.406;2023-02-15T11:25:56;101629.19;;;42.38;nan
6349;BME280;3207;42.648;23.406;2023-02-15T11:28:29;101631.66;;;42.29;nan
6349;BME280;3207;42.648;23.406;2023-02-15T11:31:00;101622.25;;;42.45;nan
6349;BME280;3207;42.648;23.406;2023-02-15T11:33:35;101620.50;;;42.93;nan
6349;BME280;3207;42.648;23.406;2023-02-15T11:36:06;101610.09;;;43.72;nan
6349;BME280;3207;42.648;23.406;2023-02-15T11:38:37;101610.53;;;43.55;nan
6349;BME280;3207;42.648;23.406;2023-02-15T11:41:10;101610.75;;;43.35;nan
6349;BME280;3207;42.648;23.406;2023-02-15T11:43:39;101602.22;;;43.84;nan
6349;BME280;3207;42.648;23.406;2023-02-15T11:46:11;101602.44;;;43.88;nan
6349;BME280;3207;42.648;23.406;2023-02-15T11:48:41;101596.22;;;44.20;nan
6349;BME280;3207;42.648;23.406;2023-02-15T11:51:12;101590.34;;;44.07;nan
6349;BME280;3207;42.648;23.406;2023-02-15T11:53:42;101592.13;;;43.51;nan
6349;BME280;3207;42.648;23.406;2023-02-15T11:56:14;101594.41;;;42.86;nan
6349;BME280;3207;42.648;23.406;2023-02-15T11:58:43;101583.03;;;42.63;nan
6349;BME280;3207;42.648;23.406;2023-02-15T12:01:15;101578.09;;;41.52;nan
6349;BME280;3207;42.648;23.406;2023-02-15T12:03:46;101565.78;;;40.58;nan
6349;BME280;3207;42.648;23.406;2023-02-15T12:06:20;101563.72;;;39.87;nan
6349;BME280;3207;42.648;23.406;2023-02-15T12:08:54;101567.19;;;39.26;nan
6349;BME280;3207;42.648;23.406;2023-02-15T12:11:27;101572.34;;;38.85;nan
6349;BME280;3207;42.648;23.406;2023-02-15T12:13:57;101557.59;;;37.62;nan
6349;BME280;3207;42.648;23.406;2023-02-15T12:16:27;101553.66;;;36.52;nan
6349;BME280;3207;42.648;23.406;2023-02-15T12:18:57;101546.00;;;35.57;nan
6349;BME280;3207;42.648;23.406;2023-02-15T12:21:28;101550.88;;;33.71;nan
6349;BME280;3207;42.648;23.406;2023-02-15T12:23:58;101536.28;;;31.52;nan
6349;BME280;3207;42.648;23.406;2023-02-15T12:26:28;101537.19;;;29.71;nan
6349;BME280;3207;42.648;23.406;2023-02-15T12:28:57;101519.50;;;28.21;nan
6349;BME280;3207;42.648;23.406;2023-02-15T12:31:30;101511.66;;;27.17;nan
6349;BME280;3207;42.648;23.406;2023-02-15T12:34:01;101508.38;;;26.15;nan
6349;BME280;3207;42.648;23.406;2023-02-15T12:36:31;101508.03;;;25.00;nan
6349;BME280;3207;42.648;23.406;2023-02-15T12:39:05;101497.31;;;23.59;nan
6349;BME280;3207;42.648;23.406;2023-02-15T12:41:44;101491.53;;;22.23;nan
6349;BME280;3207;42.648;23.406;2023-02-15T12:44:17;101486.75;;;21.35;nan
6349;BME280;3207;42.648;23.406;2023-02-15T12:46:56;101481.66;;;20.95;nan
6349;BME280;3207;42.648;23.406;2023-02-15T12:49:26;101482.50;;;20.57;nan
6349;BME280;3207;42.648;23.406;2023-02-15T12:51:54;101478.91;;;19.98;nan
6349;BME280;3207;42.648;23.406;2023-02-15T12:56:56;101458.13;;;19.63;nan
6349;BME280;3207;42.648;23.406;2023-02-15T12:59:24;101373.09;;;18.94;nan
6349;BME280;3207;42.648;23.406;2023-02-15T13:01:52;101461.03;;;19.60;nan
6349;BME280;3207;42.648;23.406;2023-02-15T13:04:23;101457.38;;;19.52;nan
6349;BME280;3207;42.648;23.406;2023-02-15T13:06:54;101449.59;;;19.09;nan
6349;BME280;3207;42.648;23.406;2023-02-15T13:09:26;101451.16;;;19.11;nan
6349;BME280;3207;42.648;23.406;2023-02-15T13:12:11;101445.03;;;18.90;nan
6349;BME280;3207;42.648;23.406;2023-02-15T13:14:43;101442.97;;;18.93;nan
6349;BME280;3207;42.648;23.406;2023-02-15T13:17:12;101434.88;;;19.16;nan
6349;BME280;3207;42.648;23.406;2023-02-15T13:19:43;101436.97;;;19.22;nan
6349;BME280;3207;42.648;23.406;2023-02-15T13:22:15;101411.84;;;19.16;nan
6349;BME280;3207;42.648;23.406;2023-02-15T13:24:45;101432.63;;;18.90;nan
6349;BME280;3207;42.648;23.406;2023-02-15T13:27:16;101422.13;;;18.89;nan
6349;BME280;3207;42.648;23.406;2023-02-15T13:29:46;101419.56;;;18.78;nan
6349;BME280;3207;42.648;23.406;2023-02-15T13:32:25;101411.16;;;18.73;nan
6349;BME280;3207;42.648;23.406;2023-02-15T13:34:54;101413.88;;;18.82;nan
6349;BME280;3207;42.648;23.406;2023-02-15T13:37:37;101415.63;;;18.72;nan
6349;BME280;3207;42.648;23.406;2023-02-15T13:40:14;101410.03;;;18.75;nan
6349;BME280;3207;42.648;23.406;2023-02-15T13:42:46;101413.75;;;18.63;nan
6349;BME280;3207;42.648;23.406;2023-02-15T13:45:32;101408.06;;;18.68;nan
6349;BME280;3207;42.648;23.406;2023-02-15T13:48:12;101414.38;;;18.76;nan
6349;BME280;3207;42.648;23.406;2023-02-15T13:50:58;101406.66;;;18.84;nan
6349;BME280;3207;42.648;23.406;2023-02-15T13:53:43;101405.31;;;18.99;nan
6349;BME280;3207;42.648;23.406;2023-02-15T13:56:19;101402.13;;;18.96;nan
6349;BME280;3207;42.648;23.406;2023-02-15T13:59:19;101412.19;;;18.60;nan
6349;BME280;3207;42.648;23.406;2023-02-15T14:01:56;101404.28;;;18.17;nan
6349;BME280;3207;42.648;23.406;2023-02-15T14:04:42;101400.00;;;18.05;nan